Time;durP1;ratioP1;P1;durP2;ratioP2;P2;SDS_P1;SDS_P2;PMS_P1;PMS_P2;Temp;Humidity;BMP_temperature;BMP_pressure;BME280_temperature;BME280_humidity;BME280_pressure;Samples;Min_cycle;Max_cycle;Signal;HPM_P1;HPM_P2
2023/01/27 00:02:20;;;;;;;9.35;5.63;;;2.40;71.50;;;;;;5007868;28;20037;-64
2023/01/27 00:04:46;;;;;;;10.50;6.50;;;2.50;71.70;;;;;;5005782;28;20037;-64
2023/01/27 00:07:11;;;;;;;10.80;6.03;;;2.50;71.70;;;;;;5000655;28;20080;-63
2023/01/27 00:09:37;;;;;;;8.77;5.57;;;2.50;71.60;;;;;;4996307;28;20030;-63
2023/01/27 00:14:47;;;;;;;8.93;5.10;;;2.50;71.60;;;;;;5007535;28;20041;-63
2023/01/27 00:17:13;;;;;;;9.65;5.45;;;2.50;71.40;;;;;;5010383;28;20023;-63
2023/01/27 00:19:43;;;;;;;9.23;5.30;;;2.50;71.60;;;;;;5008627;28;20040;-63
2023/01/27 00:24:53;;;;;;;;;;;2.50;71.60;;;;;;5005972;28;20124;-63
2023/01/27 00:27:19;;;;;;;8.15;4.80;;;2.50;71.60;;;;;;5007685;28;19910;-62
2023/01/27 00:29:44;;;;;;;9.30;5.25;;;2.70;71.60;;;;;;5002821;28;20041;-63
2023/01/27 00:34:54;;;;;;;9.88;5.28;;;2.80;71.80;;;;;;4997388;28;20102;-62
2023/01/27 00:37:20;;;;;;;9.48;5.35;;;2.60;71.80;;;;;;5004687;28;20030;-62
2023/01/27 00:39:45;;;;;;;8.15;5.25;;;2.80;71.90;;;;;;5001959;28;20046;-64
2023/01/27 00:42:11;;;;;;;11.75;6.30;;;2.50;71.70;;;;;;5001197;28;20032;-62
2023/01/27 00:44:36;;;;;;;10.30;5.90;;;2.60;71.90;;;;;;5002648;28;20034;-62
2023/01/27 00:47:02;;;;;;;11.98;5.65;;;2.60;72.00;;;;;;5003085;28;20041;-62
2023/01/27 00:49:28;;;;;;;10.30;6.13;;;2.60;72.00;;;;;;4997904;28;20039;-62
2023/01/27 00:51:56;;;;;;;12.10;6.35;;;2.60;71.90;;;;;;4997093;28;20026;-60
2023/01/27 00:54:22;;;;;;;12.45;6.35;;;2.70;72.10;;;;;;5001223;28;20145;-63
2023/01/27 00:56:48;;;;;;;10.68;6.32;;;2.70;72.00;;;;;;5002489;28;20030;-64
2023/01/27 00:59:13;;;;;;;10.63;6.38;;;2.70;72.40;;;;;;4990969;28;20039;-64
2023/01/27 01:01:39;;;;;;;10.50;6.03;;;3.00;71.70;;;;;;5000430;28;20026;-63
2023/01/27 01:04:04;;;;;;;9.50;6.13;;;2.70;71.60;;;;;;5004718;28;20109;-63
2023/01/27 01:06:30;;;;;;;10.75;6.25;;;2.70;71.60;;;;;;5001251;28;20033;-63
2023/01/27 01:08:56;;;;;;;11.07;6.30;;;2.70;71.60;;;;;;5000742;28;20026;-63
2023/01/27 01:11:23;;;;;;;9.27;5.80;;;3.00;71.70;;;;;;4988581;28;20041;-63
2023/01/27 01:13:48;;;;;;;9.75;5.85;;;2.60;71.60;;;;;;4998596;28;20037;-63
2023/01/27 01:16:18;;;;;;;10.50;6.47;;;2.60;71.70;;;;;;5001947;28;20026;-63
2023/01/27 01:18:44;;;;;;;10.90;6.10;;;2.60;71.70;;;;;;5002671;28;20084;-63
2023/01/27 01:21:10;;;;;;;10.45;6.03;;;2.50;71.70;;;;;;5008487;28;20029;-63
2023/01/27 01:23:43;;;;;;;9.80;6.15;;;2.60;71.80;;;;;;5009601;28;20026;-63
2023/01/27 01:26:10;;;;;;;10.65;6.13;;;2.50;71.80;;;;;;5001223;28;20042;-64
2023/01/27 01:28:36;;;;;;;10.88;5.93;;;2.50;71.80;;;;;;4997350;28;20027;-63
2023/01/27 01:31:10;;;;;;;9.90;6.22;;;2.60;71.90;;;;;;4997177;28;20031;-64
2023/01/27 01:33:36;;;;;;;10.15;5.97;;;2.60;71.90;;;;;;4984555;28;20086;-63
2023/01/27 01:36:07;;;;;;;9.88;5.57;;;2.80;72.00;;;;;;4999961;28;20046;-63
2023/01/27 01:38:33;;;;;;;10.70;5.78;;;2.60;71.80;;;;;;4982006;28;20497;-63
2023/01/27 01:40:59;;;;;;;8.75;5.75;;;2.60;71.90;;;;;;4978141;28;20030;-63
2023/01/27 01:43:26;;;;;;;13.75;5.45;;;2.60;71.80;;;;;;4978958;28;20101;-63
2023/01/27 01:45:57;;;;;;;7.50;5.20;;;2.60;71.80;;;;;;4984642;28;20039;-63
2023/01/27 01:48:32;;;;;;;11.95;5.30;;;2.60;71.70;;;;;;4980151;28;20022;-64
2023/01/27 01:51:36;;;;;;;9.07;4.82;;;2.60;71.60;;;;;;4979376;28;20041;-63
2023/01/27 01:54:01;;;;;;;7.57;4.88;;;2.60;71.50;;;;;;4979304;28;20055;-63
2023/01/27 01:56:38;;;;;;;9.77;5.32;;;2.60;71.50;;;;;;4977897;28;20178;-63
2023/01/27 01:59:13;;;;;;;9.35;5.28;;;2.70;71.40;;;;;;4983097;28;20027;-63
2023/01/27 02:01:38;;;;;;;6.68;5.10;;;2.70;71.40;;;;;;4975596;28;20162;-64
2023/01/27 02:04:13;;;;;;;9.82;5.38;;;2.60;71.40;;;;;;4984002;28;20039;-63
2023/01/27 02:06:44;;;;;;;7.10;4.65;;;2.80;71.40;;;;;;4982103;28;20015;-64
2023/01/27 02:09:10;;;;;;;8.30;5.25;;;2.60;71.20;;;;;;4979566;28;20031;-63
2023/01/27 02:11:36;;;;;;;10.30;5.82;;;2.60;71.10;;;;;;4967762;28;20505;-64
2023/01/27 02:14:02;;;;;;;8.95;4.93;;;2.60;70.90;;;;;;4980636;28;20042;-63
2023/01/27 02:16:28;;;;;;;9.77;5.25;;;2.70;71.10;;;;;;4988232;28;20037;-63
2023/01/27 02:18:54;;;;;;;7.07;4.78;;;2.60;71.10;;;;;;4979703;28;20027;-63
2023/01/27 02:21:20;;;;;;;7.28;4.90;;;2.60;71.10;;;;;;4981624;28;20030;-63
2023/01/27 02:23:58;;;;;;;9.90;5.10;;;2.70;71.60;;;;;;4980136;28;20058;-63
2023/01/27 02:26:35;;;;;;;6.78;4.32;;;2.60;71.00;;;;;;4977844;28;20063;-65
2023/01/27 02:29:13;;;;;;;8.50;5.53;;;2.70;71.00;;;;;;4979307;28;20034;-63
2023/01/27 02:31:39;;;;;;;7.97;5.22;;;2.70;70.80;;;;;;4971779;28;20023;-63
2023/01/27 02:34:15;;;;;;;7.50;5.13;;;2.70;70.90;;;;;;4981127;28;20019;-64
2023/01/27 02:36:48;;;;;;;8.25;5.50;;;2.70;70.80;;;;;;4981182;28;20034;-63
2023/01/27 02:39:17;;;;;;;8.80;5.32;;;2.70;70.90;;;;;;4994564;28;20121;-63
2023/01/27 02:41:51;;;;;;;8.45;5.32;;;2.70;71.00;;;;;;4982087;28;20129;-63
2023/01/27 02:44:17;;;;;;;9.05;5.47;;;2.70;70.80;;;;;;5001373;28;20400;-63
2023/01/27 02:46:43;;;;;;;9.63;5.20;;;2.70;70.80;;;;;;5002662;28;20034;-63
2023/01/27 02:49:08;;;;;;;7.70;5.57;;;2.60;70.90;;;;;;5001775;28;20026;-64
2023/01/27 02:51:34;;;;;;;11.48;6.07;;;2.60;70.90;;;;;;4995281;28;20435;-63
2023/01/27 02:54:00;;;;;;;11.23;5.70;;;2.60;70.90;;;;;;4998950;28;20022;-64
2023/01/27 02:56:25;;;;;;;7.88;5.22;;;2.60;70.90;;;;;;4983527;28;20022;-64
2023/01/27 02:58:51;;;;;;;9.52;5.78;;;2.60;70.90;;;;;;5003001;28;20045;-64
2023/01/27 03:01:17;;;;;;;8.02;5.82;;;2.60;71.10;;;;;;4999985;28;20034;-64
2023/01/27 03:03:46;;;;;;;8.63;5.68;;;2.60;71.10;;;;;;4998701;28;20030;-63
2023/01/27 03:06:15;;;;;;;9.05;5.60;;;2.80;71.30;;;;;;5001577;28;20116;-64
2023/01/27 03:08:41;;;;;;;9.95;6.32;;;2.60;71.10;;;;;;4987404;28;20030;-63
2023/01/27 03:11:08;;;;;;;9.68;5.72;;;2.60;71.10;;;;;;4998465;28;20023;-64
2023/01/27 03:13:35;;;;;;;10.23;6.78;;;2.60;71.00;;;;;;4993945;28;20110;-62
2023/01/27 03:18:48;;;;;;;8.88;5.65;;;2.60;71.20;;;;;;4991738;28;20045;-64
2023/01/27 03:21:15;;;;;;;7.95;5.57;;;2.60;71.10;;;;;;5003487;28;20515;-64
2023/01/27 03:23:41;;;;;;;10.35;6.15;;;2.80;71.30;;;;;;4991577;28;20034;-63
2023/01/27 03:26:08;;;;;;;10.32;5.90;;;2.90;71.30;;;;;;4996567;28;20461;-63
2023/01/27 03:28:34;;;;;;;10.93;6.43;;;2.60;71.10;;;;;;4999533;28;20037;-63
2023/01/27 03:31:02;;;;;;;14.18;6.35;;;2.60;71.10;;;;;;5000054;28;20377;-62
2023/01/27 03:33:28;;;;;;;7.85;5.57;;;2.60;71.10;;;;;;5003682;28;21104;-64
2023/01/27 03:46:50;;;;;;;9.80;6.28;;;2.70;71.00;;;;;;5002905;28;20054;-62
2023/01/27 03:49:15;;;;;;;9.20;6.57;;;2.70;71.00;;;;;;4985475;28;20035;-63
2023/01/27 03:51:41;;;;;;;10.38;6.68;;;2.70;70.80;;;;;;5001369;28;20027;-64
2023/01/27 03:54:08;;;;;;;10.85;6.55;;;2.60;70.70;;;;;;5001055;28;20022;-63
2023/01/27 03:56:34;;;;;;;12.10;7.10;;;2.60;70.70;;;;;;5007607;28;20428;-62
2023/01/27 03:58:59;;;;;;;11.45;7.07;;;2.60;70.80;;;;;;4998720;28;20038;-64
2023/01/27 04:01:26;;;;;;;9.88;6.93;;;2.60;70.80;;;;;;5007698;28;20023;-62
2023/01/27 04:09:31;;;;;;;9.40;6.10;;;2.80;70.70;;;;;;4998545;28;19964;-62
2023/01/27 04:11:59;;;;;;;9.43;6.43;;;2.60;70.50;;;;;;5002940;28;20494;-62
2023/01/27 04:14:34;;;;;;;13.18;7.35;;;2.60;70.60;;;;;;4986814;28;20057;-64
2023/01/27 04:17:12;;;;;;;11.18;6.93;;;2.60;70.80;;;;;;4999302;28;20038;-63
2023/01/27 04:19:38;;;;;;;15.13;7.60;;;2.60;70.70;;;;;;4996729;28;20052;-63
2023/01/27 04:22:05;;;;;;;10.80;7.30;;;2.60;70.80;;;;;;4999520;28;20022;-64
2023/01/27 04:24:30;;;;;;;12.52;8.25;;;2.50;70.80;;;;;;5001925;28;20038;-63
2023/01/27 04:27:06;;;;;;;14.45;7.47;;;2.50;70.80;;;;;;5002191;28;20030;-62
2023/01/27 04:29:35;;;;;;;10.90;7.28;;;2.50;70.80;;;;;;5006462;28;20038;-63
2023/01/27 04:32:02;;;;;;;12.55;7.32;;;2.50;70.80;;;;;;5000243;28;20023;-62
2023/01/27 04:34:28;;;;;;;11.90;7.40;;;2.50;70.80;;;;;;5002836;28;20034;-63
2023/01/27 04:36:54;;;;;;;12.35;6.82;;;2.50;70.90;;;;;;4996759;28;20026;-62
2023/01/27 04:39:21;;;;;;;11.07;6.72;;;2.50;71.00;;;;;;5005132;28;20049;-63
2023/01/27 04:41:47;;;;;;;10.55;6.78;;;2.50;71.00;;;;;;5006024;28;20022;-62
2023/01/27 04:44:14;;;;;;;13.75;8.18;;;2.40;71.00;;;;;;4997919;28;20100;-63
2023/01/27 04:46:40;;;;;;;12.82;7.97;;;2.40;71.00;;;;;;5002396;28;20084;-62
2023/01/27 04:49:06;;;;;;;10.38;7.13;;;2.40;70.90;;;;;;4999906;28;20022;-63
2023/01/27 04:51:32;;;;;;;14.30;8.85;;;2.40;71.00;;;;;;5002659;28;20031;-64
2023/01/27 04:53:58;;;;;;;14.40;9.10;;;2.40;70.80;;;;;;4986361;28;20050;-62
2023/01/27 04:56:27;;;;;;;14.75;8.57;;;2.40;70.70;;;;;;5004292;28;20042;-62
2023/01/27 04:58:54;;;;;;;14.00;7.85;;;2.30;70.80;;;;;;4998478;28;20030;-62
2023/01/27 05:01:20;;;;;;;11.43;7.80;;;2.50;71.10;;;;;;5002402;28;20018;-64
2023/01/27 05:03:45;;;;;;;12.15;7.85;;;2.50;71.20;;;;;;5005147;28;20021;-64
2023/01/27 05:06:12;;;;;;;13.52;8.60;;;2.40;71.10;;;;;;5002107;28;20044;-64
2023/01/27 05:08:38;;;;;;;13.63;8.73;;;2.30;71.00;;;;;;5001667;28;20042;-64
2023/01/27 05:11:04;;;;;;;18.40;9.93;;;2.40;71.10;;;;;;4999675;28;20034;-63
2023/01/27 05:13:30;;;;;;;15.02;8.52;;;2.30;71.10;;;;;;4998897;28;20026;-64
2023/01/27 05:16:15;;;;;;;13.73;8.52;;;2.30;71.10;;;;;;4992637;28;20044;-63
2023/01/27 05:18:42;;;;;;;16.10;9.07;;;2.20;71.60;;;;;;4997007;28;20094;-63
2023/01/27 05:21:12;;;;;;;15.18;8.65;;;2.20;70.90;;;;;;5005517;28;20021;-63
2023/01/27 05:23:38;;;;;;;13.30;8.00;;;2.20;70.70;;;;;;5001317;28;20034;-63
2023/01/27 05:26:12;;;;;;;13.57;7.65;;;2.20;70.70;;;;;;5003809;28;20041;-63
2023/01/27 05:28:40;;;;;;;14.70;8.23;;;2.10;70.70;;;;;;5000304;28;20027;-63
2023/01/27 05:31:15;;;;;;;13.02;8.27;;;2.10;70.80;;;;;;4994339;28;20100;-63
2023/01/27 05:33:41;;;;;;;14.43;8.15;;;2.10;71.10;;;;;;5001691;28;20077;-63
2023/01/27 05:36:10;;;;;;;14.27;8.55;;;2.40;71.40;;;;;;4985289;28;20050;-64
2023/01/27 05:38:36;;;;;;;15.80;9.13;;;2.20;71.20;;;;;;5000563;28;20057;-64
2023/01/27 05:41:04;;;;;;;21.00;10.82;;;2.10;71.20;;;;;;4996607;28;20038;-64
2023/01/27 05:43:32;;;;;;;15.73;8.95;;;2.10;71.40;;;;;;5000634;28;20026;-64
2023/01/27 05:46:26;;;;;;;12.88;7.95;;;2.10;70.80;;;;;;4997946;28;20065;-63
2023/01/27 05:48:54;;;;;;;14.13;8.63;;;2.20;70.90;;;;;;4987355;28;20472;-63
2023/01/27 05:51:22;;;;;;;14.23;8.50;;;2.20;70.90;;;;;;4996781;28;20034;-64
2023/01/27 05:53:48;;;;;;;13.10;8.20;;;2.20;71.10;;;;;;4985832;28;20038;-64
2023/01/27 05:56:16;;;;;;;13.93;8.50;;;2.20;71.20;;;;;;5002557;28;20030;-64
2023/01/27 05:58:43;;;;;;;12.93;8.25;;;2.20;71.10;;;;;;5008720;28;20133;-63
2023/01/27 06:01:18;;;;;;;13.30;8.38;;;2.20;71.00;;;;;;4983367;28;20042;-64
2023/01/27 06:03:44;;;;;;;13.07;8.38;;;2.20;70.60;;;;;;5002321;28;20014;-63
2023/01/27 06:06:12;;;;;;;12.38;8.13;;;2.50;70.80;;;;;;5001518;28;20038;-64
2023/01/27 06:08:38;;;;;;;11.27;7.55;;;2.20;70.60;;;;;;4991363;28;20078;-64
2023/01/27 06:11:05;;;;;;;15.10;8.90;;;2.20;70.50;;;;;;5003123;28;20030;-64
2023/01/27 06:13:34;;;;;;;14.13;7.88;;;2.40;70.70;;;;;;5003583;28;20078;-63
2023/01/27 06:16:01;;;;;;;12.10;8.05;;;2.10;70.50;;;;;;5001494;28;20516;-63
2023/01/27 06:18:30;;;;;;;13.02;7.63;;;2.10;70.60;;;;;;4942148;28;20121;-63
2023/01/27 06:20:57;;;;;;;12.32;7.75;;;2.10;70.60;;;;;;4992910;28;20026;-64
2023/01/27 06:23:24;;;;;;;13.98;8.18;;;2.10;70.70;;;;;;4999895;28;20542;-62
2023/01/27 06:25:50;;;;;;;11.88;7.80;;;2.20;70.90;;;;;;4993650;28;20034;-64
2023/01/27 06:28:16;;;;;;;10.85;6.88;;;2.30;70.70;;;;;;4994166;28;20520;-63
2023/01/27 06:30:43;;;;;;;12.02;7.40;;;2.10;70.60;;;;;;5001649;28;20034;-63
2023/01/27 06:33:09;;;;;;;11.52;7.40;;;2.10;70.40;;;;;;5004488;28;20049;-64
2023/01/27 06:35:36;;;;;;;11.35;7.38;;;2.10;70.60;;;;;;5004794;28;20023;-62
2023/01/27 06:38:03;;;;;;;12.85;8.40;;;2.10;70.60;;;;;;4997890;28;20034;-63
2023/01/27 06:40:30;;;;;;;12.02;7.47;;;2.20;70.70;;;;;;4998709;28;20344;-63
2023/01/27 06:42:57;;;;;;;12.02;7.60;;;2.10;70.60;;;;;;4997603;28;20038;-63
2023/01/27 06:45:23;;;;;;;12.43;7.88;;;2.10;70.70;;;;;;4998281;28;20054;-64
2023/01/27 06:47:59;;;;;;;12.27;8.13;;;2.10;70.60;;;;;;5003673;28;20019;-64
2023/01/27 06:50:26;;;;;;;13.27;8.52;;;2.00;70.20;;;;;;5005698;28;20654;-64
2023/01/27 06:52:52;;;;;;;10.48;7.28;;;2.00;70.30;;;;;;5001648;28;20022;-64
2023/01/27 06:55:18;;;;;;;13.27;8.07;;;2.00;70.50;;;;;;5005522;28;20035;-64
2023/01/27 06:57:47;;;;;;;12.68;8.50;;;2.00;70.70;;;;;;5004019;28;20089;-63
2023/01/27 07:00:15;;;;;;;11.43;7.63;;;2.00;70.70;;;;;;4995896;28;20073;-63
2023/01/27 07:02:41;;;;;;;13.32;8.52;;;2.00;70.60;;;;;;5003831;28;20038;-62
2023/01/27 07:05:06;;;;;;;14.80;8.85;;;2.00;70.70;;;;;;5000751;28;20118;-63
2023/01/27 07:07:32;;;;;;;12.88;9.07;;;2.00;70.70;;;;;;5004889;28;20113;-64
2023/01/27 07:09:58;;;;;;;13.40;8.68;;;2.10;70.80;;;;;;5001732;28;20113;-63
2023/01/27 07:12:23;;;;;;;12.40;8.15;;;2.00;70.70;;;;;;5008626;28;20061;-63
2023/01/27 07:14:49;;;;;;;14.30;8.80;;;2.00;70.70;;;;;;5004819;28;20090;-62
2023/01/27 07:17:14;;;;;;;12.50;8.55;;;2.00;70.70;;;;;;5004477;28;20041;-63
2023/01/27 07:19:40;;;;;;;12.48;8.15;;;2.00;70.60;;;;;;4944126;28;20037;-63
2023/01/27 07:22:06;;;;;;;13.50;8.18;;;2.00;70.70;;;;;;5002814;28;20037;-63
2023/01/27 07:24:31;;;;;;;12.00;7.82;;;2.10;70.80;;;;;;5007369;28;20042;-63
2023/01/27 07:26:57;;;;;;;13.38;8.30;;;2.00;70.80;;;;;;5007657;28;20026;-62
2023/01/27 07:29:23;;;;;;;14.10;8.52;;;2.10;70.90;;;;;;5006363;28;20053;-62
2023/01/27 07:31:48;;;;;;;16.65;8.60;;;2.00;70.80;;;;;;5003934;28;20457;-63
2023/01/27 07:34:14;;;;;;;14.23;8.90;;;2.30;70.80;;;;;;5004203;28;20096;-62
2023/01/27 07:36:40;;;;;;;13.63;7.90;;;2.10;70.50;;;;;;4991363;28;20042;-62
2023/01/27 07:39:05;;;;;;;13.65;8.55;;;2.10;70.50;;;;;;5002654;28;20042;-62
2023/01/27 07:41:31;;;;;;;12.20;7.93;;;2.10;70.60;;;;;;4989304;28;20122;-62
2023/01/27 07:43:56;;;;;;;12.75;8.05;;;2.00;70.50;;;;;;4981411;28;20117;-62
2023/01/27 07:46:22;;;;;;;14.20;8.50;;;2.10;70.60;;;;;;5001151;28;20038;-62
2023/01/27 07:48:48;;;;;;;14.13;8.93;;;2.10;70.60;;;;;;5004565;28;20062;-63
2023/01/27 07:51:14;;;;;;;13.88;8.93;;;2.10;70.60;;;;;;4997952;28;20023;-63
2023/01/27 07:53:40;;;;;;;16.85;9.52;;;2.10;70.60;;;;;;5001799;28;20044;-62
2023/01/27 07:56:10;;;;;;;15.02;8.77;;;2.10;70.50;;;;;;4999399;28;20050;-62
2023/01/27 07:58:40;;;;;;;14.23;8.40;;;2.10;70.50;;;;;;5003001;28;20082;-62
2023/01/27 08:01:10;;;;;;;15.05;9.05;;;2.10;70.60;;;;;;4997123;28;20031;-62
2023/01/27 08:03:36;;;;;;;15.55;9.48;;;2.10;70.60;;;;;;5004366;28;20034;-62
2023/01/27 08:06:07;;;;;;;17.02;9.55;;;2.10;70.60;;;;;;4999966;28;20048;-61
2023/01/27 08:08:33;;;;;;;16.60;9.32;;;2.10;70.70;;;;;;4994166;28;20368;-62
2023/01/27 08:11:03;;;;;;;16.45;9.75;;;2.10;70.80;;;;;;4993307;28;20086;-62
2023/01/27 08:13:30;;;;;;;17.25;8.65;;;2.10;71.50;;;;;;4999455;28;20050;-62
2023/01/27 08:15:59;;;;;;;17.10;9.57;;;2.10;70.90;;;;;;4996115;28;20034;-62
2023/01/27 08:18:26;;;;;;;19.92;9.93;;;2.10;70.90;;;;;;4995884;28;20087;-62
2023/01/27 08:20:53;;;;;;;14.55;8.43;;;2.10;70.90;;;;;;5001019;28;20037;-63
2023/01/27 08:23:20;;;;;;;14.95;8.70;;;2.10;71.00;;;;;;5003788;28;20037;-62
2023/01/27 08:25:50;;;;;;;14.43;8.43;;;2.10;71.00;;;;;;4997629;28;20094;-62
2023/01/27 08:28:17;;;;;;;17.65;10.10;;;2.50;71.40;;;;;;4998357;28;20110;-63
2023/01/27 08:30:43;;;;;;;19.38;10.23;;;2.20;71.20;;;;;;4996599;28;20446;-62
2023/01/27 08:33:09;;;;;;;18.77;9.52;;;2.20;71.20;;;;;;4993568;28;20084;-62
2023/01/27 08:35:37;;;;;;;18.15;9.75;;;2.30;71.30;;;;;;4998115;28;20185;-63
2023/01/27 08:38:04;;;;;;;20.88;11.07;;;2.30;71.30;;;;;;5003518;28;20030;-62
2023/01/27 08:40:30;;;;;;;20.13;10.80;;;2.40;71.40;;;;;;5002454;28;20045;-62
2023/01/27 08:42:56;;;;;;;21.02;11.02;;;2.30;71.30;;;;;;5002402;28;20669;-62
2023/01/27 08:45:22;;;;;;;21.50;10.48;;;2.30;71.40;;;;;;4987279;28;20042;-62
2023/01/27 08:47:48;;;;;;;20.95;10.68;;;2.30;71.40;;;;;;4999541;28;20422;-62
2023/01/27 08:50:13;;;;;;;19.60;10.00;;;2.60;71.70;;;;;;4985392;28;20037;-62
2023/01/27 08:52:39;;;;;;;20.30;9.73;;;2.30;71.50;;;;;;4999999;28;20042;-62
2023/01/27 08:55:05;;;;;;;18.85;10.00;;;2.30;71.60;;;;;;5001182;28;20031;-63
2023/01/27 08:57:31;;;;;;;19.98;10.50;;;2.40;71.70;;;;;;5000874;28;20117;-62
2023/01/27 08:59:57;;;;;;;18.70;9.65;;;2.40;71.80;;;;;;5002374;28;20034;-63
2023/01/27 09:02:23;;;;;;;20.33;10.82;;;2.40;71.70;;;;;;5000633;28;20025;-62
2023/01/27 09:04:50;;;;;;;18.33;10.38;;;2.40;71.60;;;;;;4999340;28;20082;-62
2023/01/27 09:07:16;;;;;;;17.92;9.52;;;2.40;71.50;;;;;;4990793;28;20034;-62
2023/01/27 09:09:45;;;;;;;19.98;10.75;;;2.50;71.60;;;;;;4978598;28;20043;-62
2023/01/27 09:12:11;;;;;;;18.05;9.68;;;2.40;71.30;;;;;;4996629;28;20027;-62
2023/01/27 09:14:37;;;;;;;16.73;9.10;;;2.50;71.10;;;;;;4999745;28;20106;-62
2023/01/27 09:17:02;;;;;;;21.60;10.02;;;2.50;71.20;;;;;;4998659;28;20122;-62
2023/01/27 09:19:29;;;;;;;16.58;8.95;;;2.70;71.50;;;;;;5001741;28;20026;-62
2023/01/27 09:21:54;;;;;;;15.98;8.70;;;2.50;71.50;;;;;;4999224;28;20027;-62
2023/01/27 09:24:20;;;;;;;19.15;9.82;;;2.70;71.40;;;;;;4998427;28;20573;-61
2023/01/27 09:26:45;;;;;;;16.58;9.15;;;2.50;71.20;;;;;;4997100;28;20081;-62
2023/01/27 09:29:11;;;;;;;18.70;9.30;;;2.50;71.00;;;;;;5003198;28;20018;-62
2023/01/27 09:31:37;;;;;;;16.13;8.77;;;2.50;71.00;;;;;;4999979;28;20042;-62
2023/01/27 09:34:03;;;;;;;17.40;9.13;;;2.80;71.20;;;;;;4996603;28;20069;-61
2023/01/27 09:36:30;;;;;;;19.30;8.57;;;2.50;71.00;;;;;;5004590;28;20017;-62
2023/01/27 09:39:01;;;;;;;16.67;9.05;;;2.60;71.30;;;;;;4988236;28;20146;-62
2023/01/27 09:41:56;;;;;;;17.17;8.80;;;2.70;71.40;;;;;;4979425;28;20111;-62
2023/01/27 09:44:27;;;;;;;17.85;8.40;;;2.60;71.10;;;;;;4974587;28;20074;-61
2023/01/27 09:47:17;;;;;;;17.23;8.57;;;2.70;71.20;;;;;;4978945;28;20070;-62
2023/01/27 09:50:05;;;;;;;15.65;8.70;;;2.70;71.00;;;;;;4975056;28;20037;-63
2023/01/27 09:52:39;;;;;;;16.27;8.05;;;2.70;70.80;;;;;;4982849;28;20068;-63
2023/01/27 09:55:05;;;;;;;14.88;7.88;;;2.80;70.80;;;;;;4979059;28;20023;-62
2023/01/27 09:57:49;;;;;;;14.73;7.55;;;2.70;70.70;;;;;;4979163;28;20033;-62
2023/01/27 10:00:41;;;;;;;16.00;7.88;;;2.80;70.50;;;;;;4986367;28;20026;-62
2023/01/27 10:03:22;;;;;;;15.80;7.68;;;2.80;70.70;;;;;;4975425;28;20046;-63
2023/01/27 10:05:56;;;;;;;15.23;7.65;;;2.80;70.60;;;;;;4975008;28;20042;-62
2023/01/27 10:08:36;;;;;;;17.60;7.95;;;2.80;70.70;;;;;;4978898;28;20037;-62
2023/01/27 10:11:19;;;;;;;14.73;8.10;;;2.80;70.70;;;;;;4980964;28;20027;-62
2023/01/27 10:14:14;;;;;;;17.38;8.77;;;2.80;70.70;;;;;;4978800;28;20033;-62
2023/01/27 10:16:52;;;;;;;;;;;3.00;70.60;;;;;;4964595;28;20035;-62
2023/01/27 10:19:40;;;;;;;14.30;6.90;;;2.90;70.60;;;;;;4888993;28;19910;-62
2023/01/27 10:22:21;;;;;;;17.17;7.57;;;2.90;70.50;;;;;;4976158;28;20031;-62
2023/01/27 10:25:08;;;;;;;17.58;8.35;;;2.90;70.60;;;;;;4973408;28;20122;-62
2023/01/27 10:27:39;;;;;;;18.83;8.85;;;2.90;70.80;;;;;;4977167;28;20022;-63
2023/01/27 10:30:15;;;;;;;19.90;9.93;;;3.00;70.90;;;;;;4977673;28;20035;-62
2023/01/27 10:33:03;;;;;;;19.65;9.30;;;3.00;70.50;;;;;;4979186;28;20377;-64
2023/01/27 10:36:36;;;;;;;15.65;8.82;;;3.00;70.40;;;;;;4977901;28;20042;-63
2023/01/27 10:39:18;;;;;;;23.02;9.73;;;3.00;70.50;;;;;;4913190;29;20059;-65
2023/01/27 10:42:13;;;;;;;17.92;8.70;;;3.00;70.40;;;;;;4936499;29;20043;-63
2023/01/27 10:44:59;;;;;;;18.40;8.50;;;3.00;70.30;;;;;;4934449;29;20192;-62
2023/01/27 10:47:45;;;;;;;18.23;8.38;;;3.00;70.10;;;;;;4934146;29;20028;-62
2023/01/27 10:50:32;;;;;;;23.02;9.52;;;3.00;70.10;;;;;;4937247;29;20047;-62
2023/01/27 10:53:08;;;;;;;18.58;9.13;;;3.10;70.40;;;;;;4917404;29;20047;-61
2023/01/27 10:55:53;;;;;;;15.48;7.93;;;2.90;70.50;;;;;;4935047;29;20072;-62
2023/01/27 10:58:22;;;;;;;19.25;8.90;;;3.00;70.70;;;;;;4930505;29;20066;-64
2023/01/27 11:00:51;;;;;;;15.65;8.57;;;3.00;70.50;;;;;;4922745;29;20044;-62
2023/01/27 11:03:22;;;;;;;21.25;9.90;;;3.00;70.30;;;;;;4943678;29;20028;-63
2023/01/27 11:05:51;;;;;;;22.27;9.77;;;3.00;70.30;;;;;;4937207;29;20183;-61
2023/01/27 11:08:24;;;;;;;31.63;14.80;;;3.00;70.10;;;;;;4935399;29;20028;-62
2023/01/27 11:13:39;;;;;;;17.90;10.23;;;2.90;70.30;;;;;;4959180;28;20049;-62
2023/01/27 11:16:14;;;;;;;17.88;9.60;;;3.20;70.70;;;;;;4964077;28;20050;-60
2023/01/27 11:18:44;;;;;;;16.80;8.65;;;2.90;70.70;;;;;;4976322;28;20051;-62
2023/01/27 11:21:17;;;;;;;13.38;7.72;;;3.00;70.70;;;;;;4977271;28;20105;-63
2023/01/27 11:23:47;;;;;;;13.27;7.60;;;3.00;70.50;;;;;;4978183;28;20029;-61
2023/01/27 11:26:31;;;;;;;12.40;7.30;;;3.00;70.50;;;;;;4962738;28;20039;-61
2023/01/27 11:29:07;;;;;;;13.15;6.88;;;3.00;70.70;;;;;;4975899;28;20027;-62
2023/01/27 11:31:36;;;;;;;13.73;7.18;;;3.10;70.70;;;;;;4978574;28;20081;-62
2023/01/27 11:34:19;;;;;;;12.05;7.07;;;3.10;70.70;;;;;;4978712;28;20050;-63
2023/01/27 11:36:46;;;;;;;11.60;6.55;;;3.20;70.70;;;;;;4962861;28;20048;-64
2023/01/27 11:39:14;;;;;;;12.05;6.72;;;3.20;70.60;;;;;;4992360;28;20049;-62
2023/01/27 11:41:53;;;;;;;12.18;7.10;;;3.30;70.50;;;;;;5004226;28;20093;-62
2023/01/27 11:44:22;;;;;;;11.30;7.20;;;3.60;70.20;;;;;;5001984;28;20026;-62
2023/01/27 11:46:49;;;;;;;11.68;7.47;;;3.40;70.10;;;;;;5000561;28;20035;-61
2023/01/27 11:49:33;;;;;;;13.45;7.25;;;3.50;70.20;;;;;;4981400;28;20041;-63
2023/01/27 11:52:05;;;;;;;21.90;12.07;;;3.60;70.20;;;;;;5000826;28;20027;-62
2023/01/27 11:54:39;;;;;;;17.60;9.05;;;3.70;70.20;;;;;;4996628;28;20025;-64
2023/01/27 11:57:07;;;;;;;;;;;3.60;70.00;;;;;;5001117;28;20026;-60
2023/01/27 11:59:38;;;;;;;9.85;6.07;;;3.80;69.60;;;;;;5000125;28;19916;-63
2023/01/27 12:02:07;;;;;;;12.27;5.78;;;3.80;69.50;;;;;;5001717;28;20398;-61
2023/01/27 12:05:15;;;;;;;10.10;6.10;;;3.80;69.50;;;;;;5007937;28;20081;-61
2023/01/27 12:07:43;;;;;;;12.68;6.93;;;3.80;68.90;;;;;;5002954;28;20030;-61
2023/01/27 12:10:38;;;;;;;10.88;6.63;;;3.90;69.50;;;;;;5004080;28;21798;-61
2023/01/27 12:13:23;;;;;;;8.55;5.18;;;3.90;68.90;;;;;;5005470;28;20137;-61
2023/01/27 12:16:01;;;;;;;10.27;6.22;;;4.00;69.00;;;;;;5003264;28;20040;-62
2023/01/27 12:18:31;;;;;;;10.10;6.53;;;4.00;69.00;;;;;;4979603;28;20030;-62
2023/01/27 12:21:04;;;;;;;9.25;6.22;;;4.00;68.70;;;;;;5006761;28;20086;-61
2023/01/27 12:23:46;;;;;;;11.27;6.30;;;4.00;68.60;;;;;;5005055;28;20023;-61
2023/01/27 12:26:11;;;;;;;10.50;6.25;;;4.00;68.40;;;;;;4977944;28;20040;-63
2023/01/27 12:28:48;;;;;;;13.02;7.15;;;3.90;68.70;;;;;;4980812;28;20030;-63
2023/01/27 12:31:25;;;;;;;11.65;6.65;;;3.90;68.80;;;;;;4999760;28;20034;-63
2023/01/27 12:34:06;;;;;;;13.02;7.22;;;3.90;68.40;;;;;;4997341;28;20050;-63
2023/01/27 12:36:41;;;;;;;13.68;6.70;;;4.00;68.70;;;;;;5003282;28;20027;-63
2023/01/27 12:39:29;;;;;;;15.60;7.75;;;3.90;68.80;;;;;;5006256;28;20046;-64
2023/01/27 12:41:55;;;;;;;17.42;8.75;;;3.90;68.70;;;;;;4998681;28;20090;-63
2023/01/27 12:44:27;;;;;;;18.48;9.23;;;3.90;68.90;;;;;;4997164;28;20561;-64
2023/01/27 12:47:03;;;;;;;17.67;8.55;;;3.90;68.30;;;;;;4996911;28;20034;-61
2023/01/27 12:49:36;;;;;;;14.90;8.20;;;3.90;68.50;;;;;;4999742;28;20030;-61
2023/01/27 12:52:04;;;;;;;15.52;8.07;;;3.90;68.70;;;;;;4997857;28;20157;-63
2023/01/27 12:54:31;;;;;;;16.40;9.05;;;3.90;68.90;;;;;;5000874;28;20022;-61
2023/01/27 12:57:09;;;;;;;12.63;7.82;;;3.90;68.80;;;;;;4997775;28;20033;-61
2023/01/27 12:59:53;;;;;;;16.00;7.95;;;3.90;68.50;;;;;;4998982;28;20142;-61
2023/01/27 13:02:20;;;;;;;14.55;8.10;;;3.90;68.60;;;;;;5000907;28;20038;-61
2023/01/27 13:04:54;;;;;;;14.98;8.10;;;4.00;68.70;;;;;;5000134;28;20042;-61
2023/01/27 13:07:26;;;;;;;17.85;9.10;;;4.00;68.70;;;;;;4998471;28;20027;-61
2023/01/27 13:10:01;;;;;;;13.88;8.52;;;4.00;68.90;;;;;;4998870;28;20050;-61
2023/01/27 13:12:28;;;;;;;;;;;4.00;68.90;;;;;;4989434;28;20022;-62
2023/01/27 13:15:14;;;;;;;15.57;7.82;;;4.10;68.70;;;;;;4998905;28;19922;-64
2023/01/27 13:17:46;;;;;;;19.50;9.65;;;4.10;69.00;;;;;;4989476;28;20026;-63
2023/01/27 13:20:18;;;;;;;16.70;9.02;;;4.10;68.70;;;;;;5003453;28;20026;-62
2023/01/27 13:23:00;;;;;;;18.85;8.88;;;4.10;68.60;;;;;;5005683;28;20031;-63
2023/01/27 13:25:48;;;;;;;21.10;9.98;;;4.10;68.80;;;;;;5002000;28;20583;-63
2023/01/27 13:28:45;;;;;;;19.15;8.98;;;4.10;68.70;;;;;;4996230;28;20085;-64
2023/01/27 13:31:30;;;;;;;19.13;9.60;;;4.10;68.40;;;;;;4999052;28;20116;-61
2023/01/27 13:34:08;;;;;;;18.10;9.32;;;4.10;68.20;;;;;;4998107;28;20098;-61
2023/01/27 13:36:41;;;;;;;20.45;9.85;;;4.10;68.20;;;;;;4999309;28;20038;-61
2023/01/27 13:39:25;;;;;;;16.58;9.32;;;4.10;68.00;;;;;;5001022;28;20093;-62